createdAt,value
2022-11-18T00:01:10.106Z,20.73
2022-11-18T00:03:38.212Z,19.93
2022-11-18T00:06:06.483Z,19.60
2022-11-18T00:08:34.247Z,20.43
2022-11-18T00:11:09.712Z,19.97
2022-11-18T00:13:56.532Z,20.20
2022-11-18T00:16:24.455Z,20.80
2022-11-18T00:18:51.650Z,19.87
2022-11-18T00:21:18.556Z,21.67
2022-11-18T00:23:45.465Z,20.17
2022-11-18T00:26:13.916Z,20.30
2022-11-18T00:28:41.755Z,21.60
2022-11-18T00:31:11.333Z,21.40
2022-11-18T00:33:39.260Z,20.60
2022-11-18T00:36:08.398Z,22.17
2022-11-18T00:38:35.191Z,21.50
2022-11-18T00:41:06.505Z,21.03
2022-11-18T00:43:34.231Z,22.13
2022-11-18T00:46:01.845Z,20.53
2022-11-18T00:48:28.679Z,22.00
2022-11-18T00:50:59.036Z,20.80
2022-11-18T00:53:27.007Z,21.20
2022-11-18T00:55:54.035Z,20.80
2022-11-18T00:58:21.113Z,20.40
2022-11-18T01:00:51.758Z,21.27
2022-11-18T01:03:19.431Z,20.50
2022-11-18T01:05:46.395Z,21.13
2022-11-18T01:08:13.667Z,22.23
2022-11-18T01:10:41.295Z,20.20
2022-11-18T01:13:23.084Z,21.70
2022-11-18T01:15:55.454Z,21.07
2022-11-18T01:18:28.151Z,20.70
2022-11-18T01:21:01.002Z,21.00
2022-11-18T01:23:28.022Z,21.67
2022-11-18T01:25:55.404Z,20.67
2022-11-18T01:28:24.068Z,21.67
2022-11-18T01:30:51.626Z,21.43
2022-11-18T01:33:18.456Z,21.73
2022-11-18T01:35:45.334Z,21.50
2022-11-18T01:38:14.097Z,20.97
2022-11-18T01:40:41.772Z,21.97
2022-11-18T01:43:17.407Z,22.60
2022-11-18T01:45:46.585Z,21.57
2022-11-18T01:48:31.775Z,21.00
2022-11-18T01:51:06.949Z,21.40
2022-11-18T01:53:37.579Z,20.70
2022-11-18T01:56:12.247Z,22.87
2022-11-18T01:58:49.198Z,21.07
2022-11-18T02:01:16.200Z,21.57
2022-11-18T02:03:44.922Z,20.33
2022-11-18T02:06:12.029Z,20.70
2022-11-18T02:08:40.191Z,21.17
2022-11-18T02:11:32.109Z,20.03
2022-11-18T02:14:01.442Z,20.07
2022-11-18T02:16:48.377Z,21.00
2022-11-18T02:19:46.302Z,19.50
2022-11-18T02:22:42.331Z,19.87
2022-11-18T02:25:30.396Z,19.37
2022-11-18T02:28:27.896Z,19.67
2022-11-18T02:31:15.123Z,18.60
2022-11-18T02:33:51.759Z,18.50
2022-11-18T02:36:23.720Z,19.50
2022-11-18T02:38:55.356Z,19.43
2022-11-18T02:41:26.780Z,19.37
2022-11-18T02:43:58.864Z,18.47
2022-11-18T02:46:38.226Z,18.67
2022-11-18T02:49:11.218Z,18.63
2022-11-18T02:51:39.547Z,19.13
2022-11-18T02:54:09.223Z,18.67
2022-11-18T02:56:37.286Z,18.80
2022-11-18T02:59:04.948Z,20.00
2022-11-18T03:01:34.902Z,18.13
2022-11-18T03:04:02.899Z,18.30
2022-11-18T03:06:37.677Z,18.60
2022-11-18T03:09:16.988Z,20.20
2022-11-18T03:11:59.010Z,19.93
2022-11-18T03:14:55.996Z,19.27
2022-11-18T03:18:00.963Z,19.10
2022-11-18T03:20:48.160Z,22.00
2022-11-18T03:23:20.942Z,20.00
2022-11-18T03:25:56.365Z,20.43
2022-11-18T03:28:23.211Z,20.10
2022-11-18T03:31:13.481Z,18.93
2022-11-18T03:33:47.494Z,18.90
2022-11-18T03:36:17.064Z,18.83
2022-11-18T03:38:54.256Z,18.53
2022-11-18T03:41:24.054Z,19.30
2022-11-18T03:43:57.413Z,19.57
2022-11-18T03:46:38.224Z,19.27
2022-11-18T03:49:08.016Z,18.90
2022-11-18T03:51:44.522Z,19.13
2022-11-18T03:54:23.585Z,19.47
2022-11-18T03:56:58.017Z,18.43
2022-11-18T03:59:34.583Z,19.07
2022-11-18T04:02:11.851Z,19.90
2022-11-18T04:04:39.241Z,19.47
2022-11-18T04:07:22.507Z,19.17
2022-11-18T04:10:10.509Z,20.73
2022-11-18T04:13:00.665Z,18.97
2022-11-18T04:15:32.288Z,20.70
2022-11-18T04:17:59.511Z,20.70
2022-11-18T04:20:28.233Z,19.53
2022-11-18T04:22:55.350Z,20.30
2022-11-18T04:25:24.334Z,19.30
2022-11-18T04:27:51.851Z,19.33
2022-11-18T04:30:19.307Z,20.73
2022-11-18T04:32:46.353Z,20.00
2022-11-18T04:35:13.637Z,21.03
2022-11-18T04:37:40.422Z,20.00
2022-11-18T04:40:07.985Z,19.87
2022-11-18T04:42:34.837Z,20.63
2022-11-18T04:45:01.745Z,19.43
2022-11-18T04:47:28.746Z,19.13
2022-11-18T04:49:55.520Z,20.63
2022-11-18T04:52:22.371Z,19.43
2022-11-18T04:54:49.271Z,21.50
2022-11-18T04:57:16.040Z,20.43
2022-11-18T04:59:42.815Z,20.00
2022-11-18T05:02:09.713Z,20.77
2022-11-18T05:04:36.601Z,19.70
2022-11-18T05:07:05.310Z,20.83
2022-11-18T05:09:33.173Z,20.90
2022-11-18T05:12:19.832Z,20.23
2022-11-18T05:14:50.007Z,21.13
2022-11-18T05:17:18.299Z,19.90
2022-11-18T05:19:45.203Z,21.63
2022-11-18T05:22:11.981Z,20.63
2022-11-18T05:24:38.766Z,20.90
2022-11-18T05:27:05.629Z,20.30
2022-11-18T05:29:33.576Z,21.27
2022-11-18T05:32:00.400Z,21.10
2022-11-18T05:34:27.266Z,21.57
2022-11-18T05:36:54.171Z,21.87
2022-11-18T05:39:21.409Z,21.97
2022-11-18T05:42:07.122Z,22.27
2022-11-18T05:44:33.915Z,22.97
2022-11-18T05:47:00.727Z,22.43
2022-11-18T05:49:27.581Z,23.57
2022-11-18T05:51:54.430Z,22.77
2022-11-18T05:54:21.985Z,23.33
2022-11-18T05:56:48.879Z,23.13
2022-11-18T05:59:16.220Z,24.57
2022-11-18T06:01:58.268Z,24.50
2022-11-18T06:04:50.345Z,28.97
2022-11-18T06:07:39.828Z,28.13
2022-11-18T06:10:07.143Z,29.70
2022-11-18T06:12:38.899Z,35.47
2022-11-18T06:15:08.983Z,25.23
2022-11-18T06:17:45.813Z,25.37
2022-11-18T06:20:12.989Z,24.63
2022-11-18T06:22:46.063Z,23.90
2022-11-18T06:25:14.121Z,23.00
2022-11-18T06:27:41.890Z,22.20
2022-11-18T06:30:09.525Z,22.40
2022-11-18T06:32:36.310Z,23.13
2022-11-18T06:35:03.126Z,21.60
2022-11-18T06:37:29.911Z,22.27
2022-11-18T06:39:56.692Z,21.90
2022-11-18T06:42:42.013Z,21.13
2022-11-18T06:45:09.385Z,21.10
2022-11-18T06:47:36.251Z,21.90
2022-11-18T06:50:03.259Z,20.33
2022-11-18T06:52:30.035Z,20.30
2022-11-18T06:54:56.794Z,19.33
2022-11-18T06:57:23.632Z,19.30
2022-11-18T06:59:50.432Z,19.07
2022-11-18T07:02:19.004Z,18.17
2022-11-18T07:04:46.165Z,19.30
2022-11-18T07:07:12.980Z,17.47
2022-11-18T07:09:39.805Z,18.03
2022-11-18T07:12:06.815Z,17.47
2022-11-18T07:14:33.670Z,19.07
2022-11-18T07:17:00.464Z,17.43
2022-11-18T07:19:30.205Z,17.93
2022-11-18T07:22:01.264Z,17.63
2022-11-18T07:24:28.040Z,17.73
2022-11-18T07:26:54.995Z,17.30
2022-11-18T07:29:21.752Z,17.87
2022-11-18T07:31:48.509Z,18.30
2022-11-18T07:34:15.483Z,18.47
2022-11-18T07:36:42.274Z,17.93
2022-11-18T07:39:09.307Z,18.40
2022-11-18T07:41:36.502Z,19.30
2022-11-18T07:44:04.885Z,18.63
2022-11-18T07:46:36.586Z,18.83
2022-11-18T07:49:06.155Z,18.20
2022-11-18T07:51:36.180Z,17.90
2022-11-18T07:54:21.279Z,18.97
2022-11-18T07:56:48.123Z,19.33
2022-11-18T07:59:14.923Z,17.90
2022-11-18T08:01:41.904Z,18.13
2022-11-18T08:04:11.137Z,17.17
2022-11-18T08:06:38.694Z,17.93
2022-11-18T08:09:06.933Z,17.53
2022-11-18T08:11:33.970Z,17.90
2022-11-18T08:14:00.847Z,18.50
2022-11-18T08:16:27.931Z,17.07
2022-11-18T08:18:54.968Z,17.63
2022-11-18T08:21:23.399Z,17.40
2022-11-18T08:23:55.787Z,16.50
2022-11-18T08:26:23.385Z,15.80
2022-11-18T08:28:50.790Z,16.97
2022-11-18T08:31:18.745Z,16.87
2022-11-18T08:33:46.329Z,15.17
2022-11-18T08:36:20.813Z,17.70
2022-11-18T08:38:48.132Z,16.73
2022-11-18T08:41:17.519Z,16.23
2022-11-18T08:43:44.694Z,17.40
2022-11-18T08:46:11.509Z,15.93
2022-11-18T08:48:38.586Z,17.10
2022-11-18T08:51:05.827Z,16.90
2022-11-18T08:53:33.013Z,17.37
2022-11-18T08:56:00.930Z,15.80
2022-11-18T08:58:28.293Z,17.37
2022-11-18T09:00:55.351Z,18.67
2022-11-18T09:03:23.000Z,17.50
2022-11-18T09:05:50.095Z,17.30
2022-11-18T09:08:17.124Z,16.57
2022-11-18T09:10:44.059Z,16.00
2022-11-18T09:13:49.766Z,15.43
2022-11-18T09:16:01.740Z,15.90
2022-11-18T09:18:29.377Z,16.00
2022-11-18T09:21:05.023Z,15.23
2022-11-18T09:23:33.908Z,15.23
2022-11-18T09:26:11.496Z,17.30
2022-11-18T09:28:38.856Z,15.77
2022-11-18T09:31:10.787Z,15.80
2022-11-18T09:33:38.587Z,15.63
2022-11-18T09:36:11.170Z,15.83
2022-11-18T09:38:37.998Z,15.27
2022-11-18T09:41:19.257Z,14.53
2022-11-18T09:44:23.567Z,15.17
2022-11-18T09:46:59.304Z,15.37
2022-11-18T09:49:32.503Z,14.83
2022-11-18T09:52:10.983Z,14.73
2022-11-18T09:54:38.585Z,15.20
2022-11-18T09:57:17.977Z,14.67
2022-11-18T09:59:45.330Z,14.50
2022-11-18T10:02:50.232Z,14.53
2022-11-18T10:05:19.255Z,14.03
2022-11-18T10:08:19.912Z,15.23
2022-11-18T10:11:10.057Z,13.57
2022-11-18T10:13:58.360Z,14.13
2022-11-18T10:16:25.104Z,13.70
2022-11-18T10:19:10.024Z,12.53
2022-11-18T10:22:23.811Z,13.23
2022-11-18T10:24:56.298Z,13.80
2022-11-18T10:27:26.786Z,12.03
2022-11-18T10:29:57.194Z,11.87
2022-11-18T10:32:24.204Z,13.20
2022-11-18T10:34:56.447Z,11.70
2022-11-18T10:37:34.460Z,15.23
2022-11-18T10:40:24.644Z,10.63
2022-11-18T10:42:51.420Z,12.33
2022-11-18T10:45:24.981Z,11.40
2022-11-18T10:48:18.041Z,11.40
2022-11-18T10:50:50.468Z,11.70
2022-11-18T10:53:29.601Z,12.37
2022-11-18T10:56:02.279Z,12.10
2022-11-18T10:58:37.694Z,12.23
2022-11-18T11:01:24.398Z,11.97
2022-11-18T11:03:54.407Z,10.37
2022-11-18T11:06:27.237Z,10.73
2022-11-18T11:08:56.884Z,10.67
2022-11-18T11:11:40.024Z,11.40
2022-11-18T11:14:28.860Z,10.17
2022-11-18T11:17:13.164Z,11.27
2022-11-18T11:19:56.827Z,11.87
2022-11-18T11:22:23.791Z,10.83
2022-11-18T11:24:50.658Z,10.03
2022-11-18T11:30:21.652Z,8.63
2022-11-18T11:33:06.660Z,8.93
2022-11-18T11:36:08.516Z,9.27
2022-11-18T11:38:58.644Z,9.07
2022-11-18T11:42:02.056Z,8.60
2022-11-18T11:44:50.808Z,8.90
2022-11-18T11:47:47.571Z,9.70
2022-11-18T11:50:30.279Z,8.33
2022-11-18T11:53:26.217Z,9.03
2022-11-18T11:56:12.179Z,8.87
2022-11-18T11:58:45.131Z,8.90
2022-11-18T12:01:43.516Z,8.27
2022-11-18T12:04:32.620Z,7.73
2022-11-18T12:07:00.389Z,9.07
2022-11-18T12:09:45.966Z,9.00
2022-11-18T12:12:36.798Z,9.13
2022-11-18T12:15:27.263Z,9.33
2022-11-18T12:18:23.143Z,9.03
2022-11-18T12:20:54.588Z,8.43
2022-11-18T12:23:27.140Z,9.73
2022-11-18T12:26:01.456Z,9.17
2022-11-18T12:28:41.109Z,9.33
2022-11-18T12:31:22.888Z,9.17
2022-11-18T12:34:01.766Z,8.67
2022-11-18T12:36:39.384Z,9.17
2022-11-18T12:39:46.559Z,8.67
2022-11-18T12:43:05.042Z,8.63
2022-11-18T12:45:37.840Z,8.67
2022-11-18T12:48:05.140Z,8.20
2022-11-18T12:50:49.013Z,8.30
2022-11-18T12:53:34.700Z,7.63
2022-11-18T12:56:10.827Z,8.27
2022-11-18T12:58:37.906Z,6.57
2022-11-18T13:01:12.549Z,7.60
2022-11-18T13:03:39.602Z,7.57
2022-11-18T13:06:23.050Z,7.50
2022-11-18T13:08:59.464Z,6.90
2022-11-18T13:11:44.512Z,6.57
2022-11-18T13:14:34.863Z,6.10
2022-11-18T13:17:20.607Z,6.20
2022-11-18T13:19:58.014Z,6.50
2022-11-18T13:23:03.336Z,5.97
2022-11-18T13:25:30.129Z,6.37
2022-11-18T13:28:27.565Z,5.00
2022-11-18T13:31:07.178Z,5.13
2022-11-18T13:33:39.189Z,5.70
2022-11-18T13:36:25.781Z,4.87
2022-11-18T13:39:06.622Z,5.73
2022-11-18T13:41:35.440Z,5.23
2022-11-18T13:44:12.740Z,4.60
2022-11-18T13:46:41.788Z,5.67
2022-11-18T13:49:16.428Z,5.07
2022-11-18T13:51:43.929Z,6.10
2022-11-18T13:54:23.312Z,6.00
2022-11-18T13:56:50.731Z,5.50
2022-11-18T13:59:20.786Z,5.83
2022-11-18T14:01:53.879Z,5.50
2022-11-18T14:04:22.160Z,5.63
2022-11-18T14:06:49.644Z,5.20
2022-11-18T14:09:26.435Z,5.27
2022-11-18T14:12:21.409Z,5.47
2022-11-18T14:14:48.297Z,5.40
2022-11-18T14:17:20.821Z,5.40
2022-11-18T14:19:50.214Z,4.80
2022-11-18T14:22:18.885Z,4.83
2022-11-18T14:24:58.457Z,4.90
2022-11-18T14:27:41.015Z,5.20
2022-11-18T14:30:28.378Z,4.73
2022-11-18T14:33:10.623Z,5.30
2022-11-18T14:35:39.017Z,5.00
2022-11-18T14:41:11.170Z,4.40
2022-11-18T14:43:38.255Z,4.57
2022-11-18T14:46:25.868Z,4.20
2022-11-18T14:48:53.538Z,4.00
2022-11-18T14:51:20.319Z,4.57
2022-11-18T14:53:47.078Z,4.57
2022-11-18T14:56:21.944Z,5.27
2022-11-18T14:58:48.698Z,4.50
2022-11-18T15:01:15.648Z,4.60
2022-11-18T15:03:42.568Z,5.30
2022-11-18T15:06:17.507Z,4.47
2022-11-18T15:08:46.982Z,4.63
2022-11-18T15:11:14.769Z,4.43
2022-11-18T15:13:41.974Z,4.23
2022-11-18T15:16:17.458Z,4.20
2022-11-18T15:18:46.628Z,4.63
2022-11-18T15:21:14.772Z,4.27
2022-11-18T15:23:41.856Z,3.90
2022-11-18T15:26:35.616Z,3.90
2022-11-18T15:29:02.626Z,4.17
2022-11-18T15:31:29.413Z,4.30
2022-11-18T15:33:58.896Z,3.80
2022-11-18T15:36:28.982Z,4.07
2022-11-18T15:38:55.815Z,3.80
2022-11-18T15:41:26.129Z,4.00
2022-11-18T15:43:54.505Z,4.00
2022-11-18T15:46:23.468Z,4.07
2022-11-18T15:48:58.197Z,4.30
2022-11-18T15:51:26.235Z,4.63
2022-11-18T15:53:53.546Z,4.30
2022-11-18T15:56:23.449Z,4.50
2022-11-18T15:59:01.600Z,5.40
2022-11-18T16:01:36.602Z,4.60
2022-11-18T16:04:04.960Z,4.80
2022-11-18T16:06:32.100Z,4.57
2022-11-18T16:09:00.439Z,4.17
2022-11-18T16:11:47.645Z,4.37
2022-11-18T16:14:17.017Z,4.13
2022-11-18T16:16:45.587Z,4.53
2022-11-18T16:19:15.697Z,5.63
2022-11-18T16:21:46.912Z,7.73
2022-11-18T16:24:17.353Z,10.43
2022-11-18T16:26:44.567Z,6.13
2022-11-18T16:29:12.418Z,6.23
2022-11-18T16:31:39.866Z,8.60
2022-11-18T16:34:25.099Z,5.57
2022-11-18T16:36:54.786Z,5.10
2022-11-18T16:39:25.836Z,5.70
2022-11-18T16:41:54.775Z,4.97
2022-11-18T16:44:21.535Z,7.27
2022-11-18T16:46:50.799Z,10.90
2022-11-18T16:49:19.611Z,9.27
2022-11-18T16:51:49.137Z,7.40
2022-11-18T16:54:22.737Z,6.30
2022-11-18T16:56:50.576Z,6.07
2022-11-18T16:59:22.337Z,7.30
2022-11-18T17:01:50.472Z,6.63
2022-11-18T17:04:18.222Z,7.00
2022-11-18T17:06:46.352Z,5.37
2022-11-18T17:09:23.821Z,5.13
2022-11-18T17:11:52.340Z,8.40
2022-11-18T17:14:19.724Z,12.83
2022-11-18T17:16:46.614Z,9.17
2022-11-18T17:19:15.703Z,18.00
2022-11-18T17:21:43.401Z,25.10
2022-11-18T17:24:12.565Z,19.00
2022-11-18T17:26:39.434Z,15.63
2022-11-18T17:29:06.375Z,14.40
2022-11-18T17:31:33.909Z,12.87
2022-11-18T17:34:00.779Z,11.73
2022-11-18T17:36:27.900Z,10.43
2022-11-18T17:38:58.178Z,9.20
2022-11-18T17:41:44.981Z,8.07
2022-11-18T17:44:14.173Z,9.60
2022-11-18T17:46:41.256Z,9.70
2022-11-18T17:49:13.702Z,8.20
2022-11-18T17:51:40.813Z,7.47
2022-11-18T17:54:08.756Z,6.73
2022-11-18T17:56:36.159Z,6.67
2022-11-18T17:59:03.256Z,6.40
2022-11-18T18:01:30.198Z,6.30
2022-11-18T18:03:57.175Z,6.30
2022-11-18T18:06:24.406Z,6.67
2022-11-18T18:08:56.227Z,6.40
2022-11-18T18:11:23.438Z,6.17
2022-11-18T18:14:08.927Z,6.37
2022-11-18T18:16:36.077Z,6.87
2022-11-18T18:19:05.150Z,6.60
2022-11-18T18:21:32.576Z,6.20
2022-11-18T18:23:59.811Z,7.10
2022-11-18T18:26:31.266Z,9.13
2022-11-18T18:28:59.737Z,6.93
2022-11-18T18:31:27.529Z,7.17
2022-11-18T18:33:54.433Z,7.50
2022-11-18T18:36:21.781Z,7.10
2022-11-18T18:38:48.684Z,6.90
2022-11-18T18:41:18.165Z,7.13
2022-11-18T18:43:48.705Z,7.70
2022-11-18T18:46:33.758Z,7.80
2022-11-18T18:49:10.821Z,7.33
2022-11-18T18:51:40.202Z,7.23
2022-11-18T18:54:08.027Z,8.00
2022-11-18T18:56:34.878Z,7.80
2022-11-18T18:59:02.121Z,7.40
2022-11-18T19:01:29.504Z,7.40
2022-11-18T19:03:58.888Z,7.63
2022-11-18T19:06:51.704Z,7.27
2022-11-18T19:09:15.122Z,8.20
2022-11-18T19:12:00.689Z,8.40
2022-11-18T19:14:28.171Z,7.50
2022-11-18T19:16:56.422Z,7.60
2022-11-18T19:19:44.233Z,7.50
2022-11-18T19:22:13.772Z,10.77
2022-11-18T19:24:50.250Z,10.07
2022-11-18T19:27:18.624Z,10.60
2022-11-18T19:29:45.441Z,9.93
2022-11-18T19:32:12.471Z,9.93
2022-11-18T19:34:39.307Z,9.80
2022-11-18T19:37:06.220Z,9.50
2022-11-18T19:39:33.111Z,10.20
2022-11-18T19:42:00.009Z,9.90
2022-11-18T19:44:27.034Z,9.70
2022-11-18T19:46:53.777Z,9.93
2022-11-18T19:49:20.889Z,9.90
2022-11-18T19:51:48.105Z,10.33
2022-11-18T19:54:14.885Z,9.77
2022-11-18T19:56:41.663Z,11.33
2022-11-18T19:59:08.513Z,19.03
2022-11-18T20:01:35.324Z,26.33
2022-11-18T20:04:03.137Z,28.93
2022-11-18T20:06:30.128Z,22.07
2022-11-18T20:08:57.670Z,21.57
2022-11-18T20:11:25.146Z,20.30
2022-11-18T20:13:52.269Z,20.43
2022-11-18T20:16:23.460Z,20.80
2022-11-18T20:19:05.002Z,18.07
2022-11-18T20:21:34.778Z,17.97
2022-11-18T20:24:03.924Z,21.13
2022-11-18T20:26:36.085Z,24.73
2022-11-18T20:29:03.634Z,22.73
2022-11-18T20:31:32.848Z,22.07
2022-11-18T20:34:00.096Z,21.13
2022-11-18T20:36:30.580Z,20.07
2022-11-18T20:39:02.307Z,19.60
2022-11-18T20:41:31.693Z,21.60
2022-11-18T20:43:59.557Z,21.90
2022-11-18T20:46:26.456Z,21.50
2022-11-18T20:48:53.354Z,24.10
2022-11-18T20:51:23.420Z,26.37
2022-11-18T20:53:51.600Z,23.23
2022-11-18T20:56:23.570Z,22.30
2022-11-18T20:58:50.765Z,22.40
2022-11-18T21:01:19.318Z,25.60
2022-11-18T21:03:54.130Z,26.13
2022-11-18T21:06:23.144Z,23.87
2022-11-18T21:08:54.996Z,21.57
2022-11-18T21:11:22.087Z,20.90
2022-11-18T21:14:07.738Z,20.83
2022-11-18T21:16:35.212Z,21.00
2022-11-18T21:19:02.491Z,20.93
2022-11-18T21:21:44.569Z,21.17
2022-11-18T21:24:31.790Z,21.17
2022-11-18T21:26:59.909Z,20.33
2022-11-18T21:29:29.151Z,20.87
2022-11-18T21:31:56.502Z,19.90
2022-11-18T21:34:24.383Z,19.67
2022-11-18T21:36:54.625Z,20.03
2022-11-18T21:39:23.559Z,18.60
2022-11-18T21:41:55.161Z,19.17
2022-11-18T21:44:23.087Z,18.27
2022-11-18T21:46:49.972Z,18.90
2022-11-18T21:49:17.425Z,20.40
2022-11-18T21:51:44.481Z,21.63
2022-11-18T21:54:12.913Z,20.70
2022-11-18T21:56:39.822Z,20.33
2022-11-18T21:59:07.633Z,20.80
2022-11-18T22:01:34.910Z,20.70
2022-11-18T22:04:03.911Z,20.77
2022-11-18T22:06:33.428Z,19.73
2022-11-18T22:09:01.394Z,18.63
2022-11-18T22:11:28.687Z,18.70
2022-11-18T22:13:55.902Z,19.30
2022-11-18T22:16:24.989Z,19.90
2022-11-18T22:18:59.050Z,20.33
2022-11-18T22:21:28.159Z,18.83
2022-11-18T22:23:59.812Z,18.87
2022-11-18T22:26:27.069Z,17.13
2022-11-18T22:28:55.653Z,18.47
2022-11-18T22:31:24.687Z,18.67
2022-11-18T22:33:52.475Z,18.90
2022-11-18T22:36:21.524Z,19.20
2022-11-18T22:38:48.888Z,18.77
2022-11-18T22:41:35.512Z,19.30
2022-11-18T22:44:07.422Z,19.13
2022-11-18T22:46:36.284Z,19.97
2022-11-18T22:49:03.828Z,18.87
2022-11-18T22:51:30.659Z,19.40
2022-11-18T22:54:22.981Z,19.47
2022-11-18T22:56:44.701Z,19.83
2022-11-18T22:59:14.603Z,20.43
2022-11-18T23:01:41.625Z,18.80
2022-11-18T23:04:08.696Z,19.60
2022-11-18T23:06:35.615Z,18.97
2022-11-18T23:09:02.929Z,19.67
2022-11-18T23:11:49.315Z,18.63
2022-11-18T23:14:16.107Z,18.27
2022-11-18T23:16:43.431Z,17.10
2022-11-18T23:19:13.467Z,16.50
2022-11-18T23:21:41.092Z,17.77
2022-11-18T23:24:10.976Z,17.63
2022-11-18T23:26:37.928Z,18.93
2022-11-18T23:29:04.799Z,17.67
2022-11-18T23:31:31.919Z,16.97
2022-11-18T23:33:59.400Z,16.57
2022-11-18T23:36:27.976Z,16.70
2022-11-18T23:38:56.053Z,17.13
2022-11-18T23:41:23.297Z,16.57
2022-11-18T23:43:51.988Z,16.37
2022-11-18T23:46:18.987Z,15.83
2022-11-18T23:48:46.520Z,16.10
2022-11-18T23:51:19.009Z,15.90
2022-11-18T23:53:48.215Z,14.50
2022-11-18T23:56:16.753Z,14.93
2022-11-18T23:58:46.057Z,14.87
